Time;durP1;ratioP1;P1;durP2;ratioP2;P2;SDS_P1;SDS_P2;PMS_P1;PMS_P2;Temp;Humidity;BMP_temperature;BMP_pressure;BME280_temperature;BME280_humidity;BME280_pressure;Samples;Min_cycle;Max_cycle;Signal;HPM_P1;HPM_P2
2021/12/06 00:01:30;;;;;;;31.23;18.50;;;;;;;-142.75;100.00;78027.22;5068931;28;19939;-68
2021/12/06 00:04:07;;;;;;;29.43;17.63;;;;;;;-142.75;100.00;78029.19;5050282;28;20027;-68
2021/12/06 00:06:34;;;;;;;29.50;17.35;;;;;;;-142.75;100.00;78033.13;5048450;28;20429;-68
2021/12/06 00:09:04;;;;;;;29.70;17.83;;;;;;;-142.75;100.00;78037.06;5070819;28;20028;-67
2021/12/06 00:11:29;;;;;;;34.93;18.10;;;;;;;-142.75;100.00;78058.72;5069932;28;20024;-68
2021/12/06 00:13:55;;;;;;;30.92;17.77;;;;;;;-142.75;100.00;78048.88;5070714;28;20368;-68
2021/12/06 00:16:22;;;;;;;30.70;18.15;;;;;;;-142.75;100.00;78042.97;5070845;28;20027;-69
2021/12/06 00:18:50;;;;;;;29.23;17.17;;;;;;;-142.75;100.00;78041.00;5070750;28;20048;-68
2021/12/06 00:21:15;;;;;;;31.00;18.13;;;;;;;-142.75;100.00;78041.00;5069849;28;20094;-68
2021/12/06 00:23:41;;;;;;;32.00;18.20;;;;;;;-142.75;100.00;78035.09;5070572;28;20493;-68
2021/12/06 00:26:08;;;;;;;32.42;16.90;;;;;;;-142.75;100.00;78037.06;5070430;28;20103;-68
2021/12/06 00:28:34;;;;;;;32.00;18.33;;;;;;;-142.75;100.00;78056.78;5070309;28;20036;-67
2021/12/06 00:30:59;;;;;;;30.35;18.13;;;;;;;-142.75;100.00;78062.69;5069441;28;20506;-68
2021/12/06 00:33:27;;;;;;;33.42;17.92;;;;;;;-142.75;100.00;78060.72;5070270;28;20055;-68
2021/12/06 00:35:52;;;;;;;35.33;18.57;;;;;;;-142.75;100.00;78052.81;5070221;28;20035;-66
2021/12/06 00:38:18;;;;;;;30.98;17.52;;;;;;;-142.75;100.00;78060.72;5070347;28;20494;-68
2021/12/06 00:40:47;;;;;;;31.38;18.48;;;;;;;-142.75;100.00;78056.78;5066647;28;20028;-68
2021/12/06 00:43:13;;;;;;;33.10;18.43;;;;;;;-142.75;100.00;78050.84;5052051;28;20668;-68
2021/12/06 00:45:38;;;;;;;35.83;18.65;;;;;;;-142.75;100.00;78054.81;5069973;28;20107;-68
2021/12/06 00:48:05;;;;;;;31.02;18.73;;;;;;;-142.75;100.00;78048.88;5069916;28;20035;-67
2021/12/06 00:50:34;;;;;;;34.37;19.37;;;;;;;-142.75;100.00;78050.84;5069226;28;20115;-67
2021/12/06 00:52:59;;;;;;;34.10;19.07;;;;;;;-142.75;100.00;78044.94;5052104;28;20510;-67
2021/12/06 00:55:24;;;;;;;33.70;18.73;;;;;;;-142.75;100.00;78058.72;5069928;28;20024;-67
2021/12/06 00:57:54;;;;;;;32.92;19.35;;;;;;;-142.75;100.00;78064.66;5069664;28;20466;-68
2021/12/06 01:00:25;;;;;;;31.17;18.77;;;;;;;-142.75;100.00;78054.81;5051251;28;20020;-68
2021/12/06 01:02:50;;;;;;;32.33;18.40;;;;;;;-142.75;100.00;78050.84;5069901;28;20024;-68
2021/12/06 01:05:16;;;;;;;34.50;19.70;;;;;;;-142.75;100.00;78052.81;5069756;28;20024;-68
2021/12/06 01:07:42;;;;;;;31.08;18.05;;;;;;;-142.75;100.00;78060.72;5051656;28;20455;-68
2021/12/06 01:10:08;;;;;;;33.63;19.83;;;;;;;-142.75;100.00;78066.63;5068928;28;20033;-68
2021/12/06 01:12:34;;;;;;;33.33;19.57;;;;;;;-142.75;100.00;78060.72;5051594;28;20032;-68
2021/12/06 01:15:00;;;;;;;37.60;19.77;;;;;;;-142.75;100.00;78066.63;5069572;28;20386;-68
2021/12/06 01:17:25;;;;;;;33.03;19.80;;;;;;;-142.75;100.00;78060.72;5051258;28;20028;-67
2021/12/06 01:19:51;;;;;;;32.75;19.58;;;;;;;-142.75;100.00;78058.72;5068780;28;20032;-67
2021/12/06 01:24:51;;;;;;;36.00;19.65;;;;;;;-142.75;100.00;78064.66;5069394;28;20036;-68
2021/12/06 01:30:06;;;;;;;34.23;19.87;;;;;;;-142.75;100.00;78076.47;5069118;28;20067;-68
2021/12/06 01:40:26;;;;;;;33.03;19.27;;;;;;;-142.75;100.00;78068.59;5068555;28;20128;-68
2021/12/06 01:42:52;;;;;;;34.85;17.95;;;;;;;-142.75;100.00;78066.63;5070288;28;20460;-66
2021/12/06 01:45:18;;;;;;;33.53;18.70;;;;;;;-142.75;100.00;78078.44;5051606;28;20025;-68
2021/12/06 01:47:44;;;;;;;33.33;19.50;;;;;;;-142.75;100.00;78072.53;5069093;28;20115;-68
2021/12/06 01:50:28;;;;;;;32.60;19.42;;;;;;;-142.75;100.00;78080.41;5068234;28;20028;-67
2021/12/06 01:52:57;;;;;;;33.80;19.10;;;;;;;-142.75;100.00;78066.63;5069115;28;20074;-66
2021/12/06 01:55:30;;;;;;;36.50;19.57;;;;;;;-142.75;100.00;78068.59;5051198;28;20043;-65
2021/12/06 01:57:57;;;;;;;33.53;19.63;;;;;;;-142.75;100.00;78074.50;5068960;28;20029;-67
2021/12/06 02:00:28;;;;;;;38.73;21.10;;;;;;;-142.75;100.00;78072.53;5068352;28;20090;-66
2021/12/06 02:02:53;;;;;;;32.07;18.90;;;;;;;-142.75;100.00;78070.56;5068976;28;20028;-66
2021/12/06 02:05:19;;;;;;;34.70;18.75;;;;;;;-142.75;100.00;78054.81;5069294;28;20070;-68
2021/12/06 02:07:45;;;;;;;35.67;20.08;;;;;;;-142.75;100.00;78060.72;5050969;28;20028;-67
2021/12/06 02:10:11;;;;;;;32.22;19.20;;;;;;;-142.75;100.00;78052.81;5070705;28;20028;-68
2021/12/06 02:12:36;;;;;;;36.05;21.38;;;;;;;-142.75;100.00;78035.09;5073083;28;20429;-67
2021/12/06 02:15:08;;;;;;;34.50;19.67;;;;;;;-142.75;100.00;78039.03;5072951;28;20039;-67
2021/12/06 02:17:39;;;;;;;35.93;20.33;;;;;;;-142.75;100.00;78031.16;5072839;28;20123;-67
2021/12/06 02:20:22;;;;;;;34.87;20.57;;;;;;;-142.75;100.00;78031.16;5072195;28;20024;-67
2021/12/06 02:22:47;;;;;;;37.47;20.67;;;;;;;-142.75;100.00;78039.03;5055063;28;20024;-67
2021/12/06 02:25:16;;;;;;;37.90;18.90;;;;;;;-142.75;100.00;78041.00;5072819;28;20025;-67
2021/12/06 02:27:43;;;;;;;34.40;20.40;;;;;;;-142.75;100.00;78046.91;5072595;28;20860;-67
2021/12/06 02:30:10;;;;;;;34.47;19.80;;;;;;;-142.75;100.00;78054.81;5071977;28;20032;-68
2021/12/06 02:32:35;;;;;;;36.50;20.57;;;;;;;-142.75;100.00;78066.63;5072953;28;20381;-67
2021/12/06 02:35:04;;;;;;;40.60;22.58;;;;;;;-142.75;100.00;78068.59;5072955;28;20111;-67
2021/12/06 02:37:33;;;;;;;41.33;23.50;;;;;;;-142.75;100.00;78068.59;5054374;28;20480;-67
2021/12/06 02:40:03;;;;;;;42.33;23.13;;;;;;;-142.75;100.00;78060.72;5071671;28;20024;-67
2021/12/06 02:42:28;;;;;;;39.00;22.67;;;;;;;-142.75;100.00;78068.59;5072494;28;20035;-67
2021/12/06 02:44:54;;;;;;;40.33;22.20;;;;;;;-142.75;100.00;78074.50;5054546;28;20036;-67
2021/12/06 02:47:20;;;;;;;39.45;22.35;;;;;;;-142.75;100.00;78082.38;5054586;28;20020;-68
2021/12/06 02:49:47;;;;;;;43.05;21.92;;;;;;;-142.75;100.00;78082.38;5071582;28;20436;-67
2021/12/06 02:52:13;;;;;;;48.57;23.00;;;;;;;-142.75;100.00;78066.63;5072146;28;20020;-68
2021/12/06 02:54:39;;;;;;;39.53;21.48;;;;;;;-142.75;100.00;78078.44;5072207;28;20048;-68
2021/12/06 02:59:38;;;;;;;45.90;24.33;;;;;;;-142.75;100.00;78082.38;5072213;28;20028;-68
2021/12/06 03:02:07;;;;;;;47.03;23.90;;;;;;;-142.75;100.00;78092.22;5071696;28;20082;-67
2021/12/06 03:04:34;;;;;;;42.47;23.07;;;;;;;-142.75;100.00;78086.31;5072003;28;20033;-67
2021/12/06 03:07:00;;;;;;;;;;;;;;;-142.75;100.00;78074.50;5072302;28;20024;-68
2021/12/06 03:09:29;;;;;;;46.67;23.67;;;;;;;-142.75;100.00;78074.50;5071842;28;19943;-67
2021/12/06 03:12:02;;;;;;;44.03;23.27;;;;;;;-142.75;100.00;78074.50;5071181;28;20103;-67
2021/12/06 03:14:31;;;;;;;43.43;23.33;;;;;;;-142.75;100.00;78070.56;5071815;28;20035;-68
2021/12/06 03:16:59;;;;;;;42.60;22.83;;;;;;;-142.75;100.00;78074.50;5053858;28;20029;-67
2021/12/06 03:19:25;;;;;;;42.50;23.67;;;;;;;-142.75;100.00;78082.38;5071937;28;20032;-67
2021/12/06 03:21:51;;;;;;;39.97;23.60;;;;;;;-142.75;100.00;78066.63;5053065;28;20039;-68
2021/12/06 03:24:17;;;;;;;47.65;23.02;;;;;;;-142.75;100.00;78070.56;5071941;28;20024;-68
2021/12/06 03:26:43;;;;;;;;;;;;;;;-142.75;100.00;78082.38;5072014;28;20035;-68
2021/12/06 03:29:09;;;;;;;40.00;21.53;;;;;;;-142.75;100.00;78072.53;5071513;28;20262;-67
2021/12/06 03:31:34;;;;;;;41.17;21.23;;;;;;;-142.75;100.00;78090.25;5053048;28;20017;-68
2021/12/06 03:34:00;;;;;;;40.38;21.42;;;;;;;-142.75;100.00;78086.31;5071542;28;20020;-68
2021/12/06 03:36:28;;;;;;;48.58;23.55;;;;;;;-142.75;100.00;78076.47;5053408;28;20032;-67
2021/12/06 03:38:56;;;;;;;43.97;22.70;;;;;;;-142.75;100.00;78080.41;5071292;28;20024;-67
2021/12/06 03:41:23;;;;;;;45.70;23.23;;;;;;;-142.75;100.00;78076.47;5070788;28;20036;-68
2021/12/06 03:43:49;;;;;;;45.40;22.97;;;;;;;-142.75;100.00;78066.63;5071601;28;20482;-68
2021/12/06 03:46:16;;;;;;;;;;;;;;;-142.75;100.00;78054.81;5071670;28;20437;-68
2021/12/06 03:48:41;;;;;;;42.35;23.75;;;;;;;-142.75;100.00;78066.63;5053277;28;19916;-68
2021/12/06 03:51:07;;;;;;;47.03;24.30;;;;;;;-142.75;100.00;78068.59;5052387;28;20479;-68
2021/12/06 03:53:32;;;;;;;46.05;23.75;;;;;;;-142.75;100.00;78066.63;5071248;28;20077;-67
2021/12/06 03:55:58;;;;;;;40.25;22.92;;;;;;;-142.75;100.00;78078.44;5053201;28;20425;-68
2021/12/06 03:58:23;;;;;;;44.47;23.65;;;;;;;-142.75;100.00;78086.31;5071004;28;20401;-67
2021/12/06 04:00:49;;;;;;;48.63;23.60;;;;;;;-142.75;100.00;78096.16;5070462;28;20062;-68
2021/12/06 04:03:17;;;;;;;43.42;23.05;;;;;;;-142.75;100.00;78106.00;5070937;28;20035;-68
2021/12/06 04:05:43;;;;;;;46.13;24.13;;;;;;;-142.75;100.00;78102.06;5070925;28;20126;-68
2021/12/06 04:08:08;;;;;;;45.13;23.20;;;;;;;-142.75;100.00;78098.13;5070919;28;20481;-68
2021/12/06 04:10:34;;;;;;;49.97;23.77;;;;;;;-142.75;100.00;78109.94;5052163;28;20036;-68
2021/12/06 04:12:59;;;;;;;49.97;24.80;;;;;;;-142.75;100.00;78111.91;5070737;28;20486;-67
2021/12/06 04:15:29;;;;;;;42.42;22.63;;;;;;;-142.75;100.00;78102.06;5070638;28;20065;-67
2021/12/06 04:17:55;;;;;;;48.13;25.17;;;;;;;-142.75;100.00;78106.00;5052584;28;20016;-67
2021/12/06 04:20:21;;;;;;;50.57;26.83;;;;;;;-142.75;100.00;78121.75;5070021;28;20115;-68
2021/12/06 04:22:47;;;;;;;52.22;25.55;;;;;;;-142.75;100.00;78121.75;5070597;28;20099;-68
2021/12/06 04:25:14;;;;;;;45.17;23.40;;;;;;;-142.75;100.00;78135.53;5052597;28;20024;-67
2021/12/06 04:27:40;;;;;;;50.00;25.37;;;;;;;-142.75;100.00;78137.50;5070498;28;20493;-68
2021/12/06 04:30:07;;;;;;;;;;;;;;;-142.75;100.00;78143.41;5070059;28;20021;-67
2021/12/06 04:32:32;;;;;;;43.95;23.33;;;;;;;-142.75;100.00;78147.34;5069265;28;20003;-68
2021/12/06 04:34:58;;;;;;;40.08;23.08;;;;;;;-142.75;100.00;78155.22;5070257;28;20116;-68
2021/12/06 04:37:23;;;;;;;46.45;22.73;;;;;;;-142.75;100.00;78170.97;5070052;28;20405;-66
2021/12/06 04:39:49;;;;;;;45.80;24.25;;;;;;;-142.75;100.00;78157.19;5069772;28;20399;-68
2021/12/06 04:42:14;;;;;;;46.58;23.50;;;;;;;-142.75;100.00;78149.31;5070185;28;20474;-68
2021/12/06 04:44:40;;;;;;;37.13;19.90;;;;;;;-142.75;100.00;78161.13;5052165;28;20055;-68
2021/12/06 04:47:06;;;;;;;51.03;24.98;;;;;;;-142.75;100.00;78149.31;5070061;28;20032;-68
2021/12/06 04:49:32;;;;;;;55.87;24.53;;;;;;;-142.75;100.00;78137.50;5069947;28;20028;-67
2021/12/06 04:52:01;;;;;;;54.08;27.30;;;;;;;-142.75;100.00;78133.56;5069244;28;20521;-68
2021/12/06 04:54:31;;;;;;;55.00;27.43;;;;;;;-142.75;100.00;78131.59;5051883;28;20024;-67
2021/12/06 04:57:02;;;;;;;52.87;27.20;;;;;;;-142.75;100.00;78133.56;5069751;28;20052;-68
2021/12/06 04:59:36;;;;;;;57.07;27.60;;;;;;;-142.75;100.00;78129.63;5069691;28;20083;-67
2021/12/06 05:02:06;;;;;;;59.40;26.60;;;;;;;-142.75;100.00;78127.66;5050964;28;20070;-68
2021/12/06 05:04:35;;;;;;;52.33;26.23;;;;;;;-142.75;100.00;78137.50;5069674;28;20044;-68
2021/12/06 05:07:09;;;;;;;55.83;28.17;;;;;;;-142.75;100.00;78145.38;5051701;28;20028;-68
2021/12/06 05:09:37;;;;;;;57.27;27.97;;;;;;;-142.75;100.00;78145.38;5069534;28;20028;-68
2021/12/06 05:12:05;;;;;;;54.23;27.47;;;;;;;-142.75;100.00;78155.22;5069194;28;20047;-68
2021/12/06 05:14:31;;;;;;;51.17;26.47;;;;;;;-142.75;100.00;78155.22;5051563;28;20544;-68
2021/12/06 05:16:57;;;;;;;54.95;27.90;;;;;;;-142.75;100.00;78151.28;5069482;28;20073;-67
2021/12/06 05:19:22;;;;;;;56.80;27.63;;;;;;;-142.75;100.00;78145.38;5069657;28;20024;-68
2021/12/06 05:21:50;;;;;;;59.45;27.48;;;;;;;-142.75;100.00;78151.28;5051049;28;20137;-68
2021/12/06 05:24:16;;;;;;;62.40;28.30;;;;;;;-142.75;100.00;78163.09;5051548;28;20397;-68
2021/12/06 05:26:43;;;;;;;57.30;29.05;;;;;;;-142.75;100.00;78159.16;5069243;28;20039;-68
2021/12/06 05:29:10;;;;;;;54.13;28.70;;;;;;;-142.75;100.00;78165.06;5051502;28;20097;-68
2021/12/06 05:31:39;;;;;;;56.00;28.40;;;;;;;-142.75;100.00;78182.81;5068618;28;20020;-68
2021/12/06 05:34:11;;;;;;;53.63;26.20;;;;;;;-142.75;100.00;78170.97;5069310;28;20032;-68
2021/12/06 05:36:37;;;;;;;49.00;26.33;;;;;;;-142.75;100.00;78167.03;5069392;28;20657;-68
2021/12/06 05:39:06;;;;;;;56.70;25.97;;;;;;;-142.75;100.00;78190.69;5051275;28;20020;-67
2021/12/06 05:41:32;;;;;;;59.97;28.00;;;;;;;-142.75;100.00;78196.59;5050433;28;20325;-68
2021/12/06 05:43:57;;;;;;;;;;;;;;;-142.75;100.00;78208.41;5069619;28;20024;-68
2021/12/06 05:46:22;;;;;;;61.03;28.37;;;;;;;-142.75;100.00;78198.56;5069278;28;19912;-66
2021/12/06 05:48:48;;;;;;;66.38;27.95;;;;;;;-142.75;100.00;78208.41;5069443;28;20093;-67
2021/12/06 05:51:13;;;;;;;57.20;27.42;;;;;;;-142.75;100.00;78214.31;5068279;28;20028;-68
2021/12/06 05:53:38;;;;;;;72.20;27.13;;;;;;;-142.75;100.00;78216.28;5069179;28;20116;-68
2021/12/06 05:56:04;;;;;;;88.75;26.65;;;;;;;-142.75;100.00;78212.34;5050957;28;20277;-68
2021/12/06 05:58:32;;;;;;;58.70;26.98;;;;;;;-142.75;100.00;78204.47;5069060;28;20025;-67
2021/12/06 06:00:58;;;;;;;66.57;28.30;;;;;;;-142.75;100.00;78214.31;5068222;28;20020;-67
2021/12/06 06:03:24;;;;;;;63.58;27.33;;;;;;;-142.75;100.00;78200.53;5051160;28;20391;-66
2021/12/06 06:05:49;;;;;;;;;;;;;;;-142.75;100.00;78202.50;5051705;28;20028;-68
2021/12/06 06:08:16;;;;;;;49.47;26.00;;;;;;;-142.75;100.00;78196.59;5068937;28;19974;-67
2021/12/06 06:10:42;;;;;;;58.20;28.30;;;;;;;-142.75;100.00;78202.50;5048736;28;20092;-67
2021/12/06 06:13:08;;;;;;;71.18;27.08;;;;;;;-142.75;100.00;78222.19;5068919;28;20629;-68
2021/12/06 06:15:35;;;;;;;70.63;27.58;;;;;;;-142.75;100.00;78253.69;5050989;28;20107;-67
2021/12/06 06:18:02;;;;;;;78.17;31.37;;;;;;;-142.75;100.00;78243.84;5050829;28;20513;-67
2021/12/06 06:20:37;;;;;;;57.73;27.73;;;;;;;-142.75;100.00;78235.97;5068155;28;20103;-67
2021/12/06 06:23:03;;;;;;;59.30;26.17;;;;;;;-142.75;100.00;78239.91;5068713;28;20040;-67
2021/12/06 06:25:29;;;;;;;83.33;33.20;;;;;;;-142.75;100.00;78235.97;5068714;28;20024;-67
2021/12/06 06:27:55;;;;;;;92.47;32.30;;;;;;;-142.75;100.00;78245.81;5068640;28;20024;-67
2021/12/06 06:30:20;;;;;;;68.05;28.88;;;;;;;-142.75;100.00;78257.63;5068301;28;20486;-68
2021/12/06 06:32:46;;;;;;;54.95;27.20;;;;;;;-142.75;100.00;78265.50;5050791;28;20397;-68
2021/12/06 06:35:14;;;;;;;84.35;28.80;;;;;;;-142.75;100.00;78271.41;5068634;28;20029;-68
2021/12/06 06:37:40;;;;;;;80.13;28.13;;;;;;;-142.75;100.00;78291.09;5050454;28;20098;-67
2021/12/06 06:40:06;;;;;;;72.07;31.42;;;;;;;-142.75;100.00;78289.13;5067876;28;20074;-67
2021/12/06 06:42:32;;;;;;;73.13;29.37;;;;;;;-142.75;100.00;78302.94;5050535;28;20025;-68
2021/12/06 06:44:57;;;;;;;86.13;28.65;;;;;;;-142.75;100.00;78312.78;5050551;28;20035;-68
2021/12/06 06:47:23;;;;;;;82.07;27.83;;;;;;;-142.75;100.00;78318.69;5068543;28;20031;-66
2021/12/06 06:49:49;;;;;;;85.95;29.95;;;;;;;-142.75;100.00;78328.53;5067979;28;20036;-67
2021/12/06 06:52:14;;;;;;;79.28;29.25;;;;;;;-142.75;100.00;78330.50;5068515;28;20062;-68
2021/12/06 06:54:40;;;;;;;65.85;28.85;;;;;;;-142.75;100.00;78340.34;5068384;28;20024;-68
2021/12/06 06:57:05;;;;;;;75.72;28.98;;;;;;;-142.75;100.00;78324.59;5054094;28;20032;-67
2021/12/06 06:59:31;;;;;;;72.35;29.73;;;;;;;-142.75;100.00;78314.75;5072069;28;20107;-68
2021/12/06 07:01:57;;;;;;;86.25;30.58;;;;;;;-142.75;100.00;78318.69;5053381;28;20359;-67
2021/12/06 07:04:22;;;;;;;66.93;29.63;;;;;;;-142.75;100.00;78320.66;5054310;28;20028;-67
2021/12/06 07:06:49;;;;;;;79.53;30.40;;;;;;;-142.75;100.00;78336.41;5072065;28;20027;-67
2021/12/06 07:09:14;;;;;;;70.97;31.27;;;;;;;-142.75;100.00;78332.47;5072012;28;20390;-68
2021/12/06 07:11:44;;;;;;;69.93;31.20;;;;;;;-142.75;100.00;78322.63;5071470;28;20021;-67
2021/12/06 07:14:09;;;;;;;87.53;32.00;;;;;;;-142.75;100.00;78334.44;5053791;28;20020;-67
2021/12/06 07:16:34;;;;;;;80.82;31.55;;;;;;;-142.75;100.00;78322.63;5071865;28;20031;-68
2021/12/06 07:18:59;;;;;;;73.07;32.08;;;;;;;-142.75;100.00;78314.75;5071616;28;20040;-68
2021/12/06 07:21:25;;;;;;;74.73;30.90;;;;;;;-142.75;100.00;78318.69;5071025;28;20065;-68
2021/12/06 07:23:51;;;;;;;75.57;33.22;;;;;;;-142.75;100.00;78310.81;5071999;28;20317;-68
2021/12/06 07:26:18;;;;;;;82.05;38.75;;;;;;;-142.75;100.00;78314.75;5071886;28;20025;-67
2021/12/06 07:28:46;;;;;;;83.63;35.27;;;;;;;-142.75;100.00;78312.78;5071523;28;20105;-68
2021/12/06 07:31:14;;;;;;;84.00;34.13;;;;;;;-142.75;100.00;78314.75;5069178;28;20025;-67
2021/12/06 07:33:40;;;;;;;77.27;32.27;;;;;;;-142.75;100.00;78318.69;5070595;28;20099;-68
2021/12/06 07:36:07;;;;;;;73.27;33.10;;;;;;;-142.75;100.00;78326.56;5070451;28;20024;-67
2021/12/06 07:38:34;;;;;;;;;;;;;;;-142.75;100.00;78330.50;5052755;28;20552;-68
2021/12/06 07:41:00;;;;;;;73.20;32.40;;;;;;;-142.75;100.00;78310.81;5069743;28;20579;-67
2021/12/06 07:43:25;;;;;;;69.78;33.10;;;;;;;-142.75;100.00;78306.88;5052538;28;20021;-67
2021/12/06 07:45:51;;;;;;;79.65;32.10;;;;;;;-142.75;100.00;78318.69;5070543;28;20028;-67
2021/12/06 07:48:16;;;;;;;80.35;34.45;;;;;;;-142.75;100.00;78306.88;5052557;28;20482;-67
2021/12/06 07:50:42;;;;;;;82.97;34.72;;;;;;;-142.75;100.00;78304.91;5069391;28;20380;-67
2021/12/06 07:53:07;;;;;;;73.53;34.28;;;;;;;-142.75;100.00;78310.81;5052208;28;20389;-68
2021/12/06 07:55:34;;;;;;;80.40;36.00;;;;;;;-142.75;100.00;78314.75;5052392;28;20495;-68
2021/12/06 07:58:09;;;;;;;78.37;35.13;;;;;;;-142.75;100.00;78318.69;5051933;28;20501;-68
2021/12/06 08:00:39;;;;;;;81.93;36.43;;;;;;;-142.75;100.00;78322.63;5069131;28;20035;-67
2021/12/06 08:03:07;;;;;;;81.70;34.13;;;;;;;-142.75;100.00;78318.69;5069944;28;20033;-67
2021/12/06 08:05:33;;;;;;;85.60;36.13;;;;;;;-142.75;100.00;78322.63;5069878;28;20024;-67
2021/12/06 08:08:01;;;;;;;84.85;36.28;;;;;;;-142.75;100.00;78318.69;5068819;28;20128;-67
2021/12/06 08:10:27;;;;;;;89.97;37.17;;;;;;;-142.75;100.00;78330.50;5069035;28;20055;-67
2021/12/06 08:12:52;;;;;;;87.88;36.05;;;;;;;-142.75;100.00;78324.59;5052352;28;20040;-67
2021/12/06 08:15:17;;;;;;;95.07;37.65;;;;;;;-142.75;100.00;78318.69;5069877;28;20074;-67
2021/12/06 08:17:43;;;;;;;92.53;36.45;;;;;;;-142.75;100.00;78312.78;5069283;28;20036;-70
2021/12/06 08:20:09;;;;;;;97.40;37.72;;;;;;;-142.75;100.00;78316.72;5061814;28;20028;-71
2021/12/06 08:22:34;;;;;;;;;;;;;;;-142.75;100.00;78318.69;5058411;28;20043;-70
2021/12/06 08:25:00;;;;;;;91.10;35.13;;;;;;;-142.75;100.00;78326.56;5039223;28;19920;-71
2021/12/06 08:27:26;;;;;;;93.40;36.03;;;;;;;-142.75;100.00;78326.56;5059685;28;20107;-71
2021/12/06 08:29:51;;;;;;;98.68;37.45;;;;;;;-142.75;100.00;78332.47;5057994;28;20398;-71
2021/12/06 08:32:18;;;;;;;94.63;37.13;;;;;;;-142.75;100.00;78322.63;5039158;28;20796;-72
2021/12/06 08:34:44;;;;;;;97.97;38.43;;;;;;;-142.75;100.00;78316.72;5039760;28;20021;-70
2021/12/06 08:37:09;;;;;;;90.65;36.42;;;;;;;-142.75;100.00;78318.69;5059896;28;20367;-69
2021/12/06 08:39:35;;;;;;;102.00;38.33;;;;;;;-142.75;100.00;78318.69;5064813;28;20425;-70
2021/12/06 08:42:01;;;;;;;94.60;37.65;;;;;;;-142.75;100.00;78332.47;5063240;28;20035;-69
2021/12/06 08:44:27;;;;;;;96.82;36.75;;;;;;;-142.75;100.00;78318.69;5069111;28;20053;-69
2021/12/06 08:46:52;;;;;;;94.78;37.92;;;;;;;-142.75;100.00;78318.69;5069073;28;20040;-68
2021/12/06 08:49:17;;;;;;;99.70;39.10;;;;;;;-142.75;100.00;78320.66;5069472;28;20115;-69
2021/12/06 08:51:50;;;;;;;99.28;42.47;;;;;;;-142.75;100.00;78310.81;5068318;28;20432;-69
2021/12/06 08:54:18;;;;;;;89.80;39.30;;;;;;;-142.75;100.00;78310.81;5048494;28;20036;-71
2021/12/06 08:56:45;;;;;;;96.10;38.77;;;;;;;-142.75;100.00;78316.72;5051199;28;20041;-70
2021/12/06 08:59:11;;;;;;;96.70;40.10;;;;;;;-142.75;100.00;78314.75;5060040;28;20037;-69
2021/12/06 09:01:37;;;;;;;101.60;41.08;;;;;;;-142.75;100.00;78302.94;5037323;28;20779;-71
2021/12/06 09:04:03;;;;;;;;;;;;;;;-142.75;100.00;78289.13;5056985;28;20063;-70
2021/12/06 09:06:28;;;;;;;103.40;40.63;;;;;;;-142.75;100.00;78293.06;5039812;28;20274;-70
2021/12/06 09:08:55;;;;;;;102.38;40.95;;;;;;;-142.75;100.00;78299.00;5039561;28;20106;-71
2021/12/06 09:11:20;;;;;;;106.93;41.93;;;;;;;-142.75;100.00;78302.94;5044543;28;20028;-70
2021/12/06 09:13:46;;;;;;;110.53;42.20;;;;;;;-142.75;100.00;78299.00;5056691;28;20525;-71
2021/12/06 09:16:13;;;;;;;103.25;40.40;;;;;;;-142.75;100.00;78310.81;5040365;28;20037;-69
2021/12/06 09:18:41;;;;;;;104.47;41.57;;;;;;;-142.75;100.00;78316.72;5059016;28;20024;-72
2021/12/06 09:21:11;;;;;;;110.33;41.90;;;;;;;-142.75;100.00;78306.88;5059676;28;20641;-70
2021/12/06 09:23:36;;;;;;;104.73;42.60;;;;;;;-142.75;100.00;78299.00;5037120;28;20024;-71
2021/12/06 09:26:03;;;;;;;105.05;40.00;;;;;;;-142.75;100.00;78285.19;5058613;28;20682;-73
2021/12/06 09:28:31;;;;;;;100.93;40.37;;;;;;;-142.75;100.00;78289.13;5064202;28;20409;-71
2021/12/06 09:30:56;;;;;;;97.77;39.83;;;;;;;-142.75;100.00;78277.31;5055762;28;20087;-71
2021/12/06 09:33:22;;;;;;;91.68;37.80;;;;;;;-142.75;100.00;78271.41;5040881;28;20024;-69
2021/12/06 09:35:48;;;;;;;87.45;36.15;;;;;;;-142.75;100.00;78271.41;5039697;28;20024;-71
2021/12/06 09:38:15;;;;;;;;;;;;;;;-142.75;100.00;78267.47;5062238;28;20609;-69
2021/12/06 09:40:44;;;;;;;90.60;37.50;;;;;;;-142.75;100.00;78287.16;5067576;28;19912;-69
2021/12/06 09:43:11;;;;;;;86.20;37.50;;;;;;;-142.75;100.00;78267.47;5068100;28;20028;-68
2021/12/06 09:45:37;;;;;;;91.97;35.47;;;;;;;-142.75;100.00;78267.47;5068063;28;20465;-69
2021/12/06 09:48:05;;;;;;;81.18;34.70;;;;;;;-142.75;100.00;78310.81;5068179;28;20111;-69
2021/12/06 09:50:35;;;;;;;86.03;37.67;;;;;;;-142.75;100.00;78295.06;5067465;28;20070;-68
2021/12/06 09:53:05;;;;;;;87.90;36.43;;;;;;;-142.75;100.00;78291.09;5050266;28;20074;-68
2021/12/06 09:55:32;;;;;;;93.83;38.93;;;;;;;-142.75;100.00;78295.06;5050597;28;20754;-68
2021/12/06 09:57:59;;;;;;;98.17;41.20;;;;;;;-142.75;100.00;78287.16;5068471;28;20393;-69
2021/12/06 10:00:28;;;;;;;102.07;40.80;;;;;;;-142.75;100.00;78293.06;5066503;28;20039;-69
2021/12/06 10:02:54;;;;;;;91.73;37.37;;;;;;;-142.75;100.00;78293.06;5049531;28;20104;-68
2021/12/06 10:05:25;;;;;;;;;;;;;;;-142.75;100.00;78283.22;5067976;28;20097;-68
2021/12/06 10:07:51;;;;;;;91.03;37.37;;;;;;;-142.75;100.00;78293.06;5049849;28;19924;-69
2021/12/06 10:10:17;;;;;;;98.60;39.33;;;;;;;-142.75;100.00;78291.09;5066987;28;20032;-69
2021/12/06 10:12:43;;;;;;;89.35;36.08;;;;;;;-142.75;100.00;78283.22;5067451;28;20023;-68
2021/12/06 10:15:09;;;;;;;91.70;34.88;;;;;;;-142.75;100.00;78277.31;5067070;28;20059;-68
2021/12/06 10:17:34;;;;;;;;;;;;;;;-142.75;100.00;78263.53;5067898;28;20024;-68
2021/12/06 10:20:01;;;;;;;79.80;30.27;;;;;;;-142.75;100.00;78279.28;5066646;28;19928;-69
2021/12/06 10:22:27;;;;;;;75.65;32.38;;;;;;;-142.75;100.00;78271.41;5066440;28;20043;-68
2021/12/06 10:24:57;;;;;;;72.25;28.60;;;;;;;-142.75;100.00;78267.47;5067675;28;20048;-68
2021/12/06 10:27:23;;;;;;;71.63;28.67;;;;;;;-142.75;100.00;78273.38;5067363;28;20429;-69
2021/12/06 10:30:00;;;;;;;65.23;27.33;;;;;;;-142.75;100.00;78275.34;5067053;28;20031;-67
2021/12/06 10:32:28;;;;;;;72.00;29.48;;;;;;;-142.75;100.00;78269.44;5071148;28;20492;-69
2021/12/06 10:35:02;;;;;;;70.27;29.83;;;;;;;-142.75;100.00;78259.59;5071002;28;20036;-68
2021/12/06 10:37:32;;;;;;;74.23;30.17;;;;;;;-142.75;100.00;78263.53;5070721;28;20032;-68
2021/12/06 10:39:58;;;;;;;79.43;31.10;;;;;;;-142.75;100.00;78235.97;5052144;28;20040;-68
2021/12/06 10:42:33;;;;;;;72.18;30.35;;;;;;;-142.75;100.00;78216.28;5071371;28;20024;-68
2021/12/06 10:45:05;;;;;;;72.53;32.27;;;;;;;-142.75;100.00;78222.19;5053010;28;20017;-69
2021/12/06 10:47:31;;;;;;;70.77;31.13;;;;;;;-142.75;100.00;78230.06;5053033;28;20055;-68
2021/12/06 10:50:07;;;;;;;74.15;31.23;;;;;;;-142.75;100.00;78208.41;5069963;28;20048;-68
2021/12/06 10:52:33;;;;;;;;;;;;;;;-142.75;100.00;78220.22;5053388;28;20020;-68
2021/12/06 10:54:58;;;;;;;56.87;25.33;;;;;;;-142.75;100.00;78230.06;5070856;28;20286;-68
2021/12/06 10:57:52;;;;;;;66.93;30.20;;;;;;;-142.75;100.00;78196.59;5052589;28;20056;-69
2021/12/06 11:00:32;;;;;;;70.93;30.03;;;;;;;-142.75;100.00;78190.69;5052478;28;20033;-68
2021/12/06 11:02:58;;;;;;;73.73;31.23;;;;;;;-142.75;100.00;78202.50;5052440;28;20106;-68
2021/12/06 11:05:30;;;;;;;73.63;32.65;;;;;;;-142.75;100.00;78192.66;5052471;28;20029;-68
2021/12/06 11:08:09;;;;;;;78.33;31.97;;;;;;;-142.75;100.00;78178.84;5070474;28;20038;-69
2021/12/06 11:10:39;;;;;;;87.60;36.07;;;;;;;-142.75;100.00;78167.03;5069673;28;20394;-67
2021/12/06 11:13:27;;;;;;;82.53;34.03;;;;;;;-142.75;100.00;78145.38;5052062;28;20053;-70